Aeroporto :
LOGIN :

Iscrizione | Disclaimer

   EN    FR    IT 

 










Sommario :    VFR   VFR Marginale   IFR   IFR Intensivo   IFR Molto Intensivo
Visibilità : 
Base nubi : 
>= 8 km
>= 3000ft
5 / 8 km
1000 / 3000 ft
1500m / 5 km
500 / 1000 ft
800 / 1500m
200 / 500 ft
< 800m
< 200 ft
Simboli :   Temporali  Nebbia  Neve Forte  Precipitazioni Forti  Vento > 20 kt
SIGMETs :   Varie  Temporali  Ghiacco  Turbolenza  Onda orograficha  Ceneri Vulcaniche






- Altitudine del aeroporto : 782 ft
- Codice IATA : BGY


LIME - Orio al Serio International - Bergamo

ULTIMO METAR :
  • 200420Z 32003KT 290V360 CAVOK 08/M01 Q1006 NOSIG

METARs OBSOLETI :
  • 200350Z 30004KT CAVOK 07/M01 Q1006 NOSIG
  • 200320Z VRB03KT CAVOK 08/M01 Q1006 NOSIG
  • 200250Z 29004KT 270V330 CAVOK 07/M00 Q1006 NOSIG
  • 200220Z 04004KT CAVOK 07/00 Q1006 NOSIG
  • 200150Z VRB02KT CAVOK 08/M00 Q1007 NOSIG
  • 200120Z VRB02KT CAVOK 08/00 Q1007 NOSIG
  • 200050Z 31003KT 230V030 CAVOK 08/01 Q1007 NOSIG
  • 200020Z 30004KT 240V020 CAVOK 08/01 Q1007 NOSIG
  • 192350Z 32004KT 290V350 CAVOK 10/01 Q1007 NOSIG

TAF TAF LIME
Valido dal 20 a 00 ore il 21 a 00 ore UTC


192300Z 2000/2024 25006KT CAVOK
BECMG 2006/2008 33011KT
BECMG 2013/2015 14008KT



MetMap, La meteo Aeronautica in un colpo d'occhio ! - Copyright ORBIFLY Dicembre 2007 - Disclaimer

ORBIFLY MET'MAP TEAM :

Programmazione e sviluppo : Alexandra Zaïnal
Concezione : Baudouin d'Aumeries
Supporto tecnico e logistico : Manuel Goepfert
Aiuto : Marc-Olivier Méhu
Aiuto per la traduzione : Arnaldo La Scala




FONTI E CREDITI :

   NOAA